sensor_id;sensor_type;location;lat;lon;timestamp;pressure;altitude;pressure_sealevel;temperature;humidity
64616;BME280;51027;42.162;24.754;2024-02-26T04:33:39;99325.09;;;10.10;100.00
64616;BME280;51027;42.162;24.754;2024-02-26T04:36:13;99310.13;;;9.92;100.00
64616;BME280;51027;42.162;24.754;2024-02-26T04:38:39;99304.88;;;9.92;100.00
64616;BME280;51027;42.162;24.754;2024-02-26T04:41:04;99339.28;;;10.28;100.00
64616;BME280;51027;42.162;24.754;2024-02-26T04:43:30;99287.09;;;9.97;100.00
64616;BME280;51027;42.162;24.754;2024-02-26T04:45:55;99341.69;;;10.12;100.00
64616;BME280;51027;42.162;24.754;2024-02-26T04:48:22;99314.25;;;9.97;100.00
64616;BME280;51027;42.162;24.754;2024-02-26T04:50:48;99334.69;;;9.91;100.00
64616;BME280;51027;42.162;24.754;2024-02-26T04:53:13;99333.25;;;9.84;100.00
64616;BME280;51027;42.162;24.754;2024-02-26T04:55:39;99336.28;;;9.95;100.00
64616;BME280;51027;42.162;24.754;2024-02-26T04:58:04;99335.38;;;9.96;100.00
64616;BME280;51027;42.162;24.754;2024-02-26T05:00:30;99347.28;;;10.04;100.00
64616;BME280;51027;42.162;24.754;2024-02-26T05:02:55;99334.66;;;9.92;100.00
64616;BME280;51027;42.162;24.754;2024-02-26T05:05:20;99336.28;;;9.74;100.00
64616;BME280;51027;42.162;24.754;2024-02-26T05:07:46;99348.13;;;9.85;100.00
64616;BME280;51027;42.162;24.754;2024-02-26T05:10:11;99348.38;;;9.78;100.00
64616;BME280;51027;42.162;24.754;2024-02-26T05:12:37;99341.97;;;9.64;100.00
64616;BME280;51027;42.162;24.754;2024-02-26T05:15:03;99348.84;;;9.88;100.00
64616;BME280;51027;42.162;24.754;2024-02-26T05:17:28;99355.03;;;9.87;100.00
64616;BME280;51027;42.162;24.754;2024-02-26T05:19:54;99338.25;;;9.90;100.00
64616;BME280;51027;42.162;24.754;2024-02-26T05:22:19;99331.31;;;9.67;100.00
64616;BME280;51027;42.162;24.754;2024-02-26T05:24:45;99340.69;;;9.74;100.00
64616;BME280;51027;42.162;24.754;2024-02-26T05:27:10;99353.56;;;9.80;100.00
64616;BME280;51027;42.162;24.754;2024-02-26T05:29:37;99339.78;;;9.95;100.00
64616;BME280;51027;42.162;24.754;2024-02-26T05:32:03;99362.75;;;10.12;100.00
64616;BME280;51027;42.162;24.754;2024-02-26T05:34:28;99361.91;;;10.12;100.00
64616;BME280;51027;42.162;24.754;2024-02-26T05:36:55;99364.53;;;10.12;100.00
64616;BME280;51027;42.162;24.754;2024-02-26T05:39:21;99369.50;;;10.18;100.00
64616;BME280;51027;42.162;24.754;2024-02-26T05:41:46;99373.25;;;10.34;100.00
64616;BME280;51027;42.162;24.754;2024-02-26T05:44:12;99369.84;;;10.51;100.00
64616;BME280;51027;42.162;24.754;2024-02-26T05:46:37;99374.75;;;10.39;100.00
64616;BME280;51027;42.162;24.754;2024-02-26T05:49:03;99380.75;;;10.43;100.00
64616;BME280;51027;42.162;24.754;2024-02-26T05:51:28;99378.22;;;10.40;100.00
64616;BME280;51027;42.162;24.754;2024-02-26T05:53:53;99366.97;;;10.36;100.00
64616;BME280;51027;42.162;24.754;2024-02-26T05:56:22;99379.03;;;10.42;100.00
64616;BME280;51027;42.162;24.754;2024-02-26T05:58:48;99388.25;;;10.32;100.00
64616;BME280;51027;42.162;24.754;2024-02-26T06:01:15;99392.38;;;10.37;100.00
64616;BME280;51027;42.162;24.754;2024-02-26T06:03:41;99394.56;;;10.28;100.00
64616;BME280;51027;42.162;24.754;2024-02-26T06:06:06;99375.41;;;10.45;100.00
64616;BME280;51027;42.162;24.754;2024-02-26T06:08:31;99394.06;;;10.59;100.00
64616;BME280;51027;42.162;24.754;2024-02-26T06:10:57;99394.75;;;10.64;100.00
64616;BME280;51027;42.162;24.754;2024-02-26T06:13:22;99393.22;;;10.58;100.00
64616;BME280;51027;42.162;24.754;2024-02-26T06:15:48;99399.66;;;10.51;100.00
64616;BME280;51027;42.162;24.754;2024-02-26T06:18:13;99391.66;;;10.34;100.00
64616;BME280;51027;42.162;24.754;2024-02-26T06:20:38;99403.31;;;10.28;100.00
64616;BME280;51027;42.162;24.754;2024-02-26T06:23:04;99399.50;;;10.35;100.00
64616;BME280;51027;42.162;24.754;2024-02-26T06:25:29;99395.88;;;10.38;100.00
64616;BME280;51027;42.162;24.754;2024-02-26T06:27:55;99388.50;;;10.26;100.00
64616;BME280;51027;42.162;24.754;2024-02-26T06:30:20;99413.03;;;10.26;100.00
64616;BME280;51027;42.162;24.754;2024-02-26T06:32:46;99401.53;;;10.07;100.00
64616;BME280;51027;42.162;24.754;2024-02-26T06:35:11;99423.66;;;10.25;100.00
64616;BME280;51027;42.162;24.754;2024-02-26T06:37:37;99423.28;;;10.12;100.00
64616;BME280;51027;42.162;24.754;2024-02-26T06:40:03;99386.44;;;10.12;100.00
64616;BME280;51027;42.162;24.754;2024-02-26T06:42:34;99428.97;;;10.23;100.00
64616;BME280;51027;42.162;24.754;2024-02-26T06:45:00;99396.28;;;10.07;100.00
64616;BME280;51027;42.162;24.754;2024-02-26T06:47:26;99423.72;;;10.44;100.00
64616;BME280;51027;42.162;24.754;2024-02-26T06:49:51;99409.41;;;10.29;100.00
64616;BME280;51027;42.162;24.754;2024-02-26T06:52:17;99424.28;;;10.50;100.00
64616;BME280;51027;42.162;24.754;2024-02-26T06:54:42;99419.31;;;10.44;100.00
64616;BME280;51027;42.162;24.754;2024-02-26T06:57:07;99428.31;;;10.38;100.00
64616;BME280;51027;42.162;24.754;2024-02-26T06:59:33;99391.34;;;10.20;100.00
64616;BME280;51027;42.162;24.754;2024-02-26T07:01:58;99433.72;;;10.56;100.00
64616;BME280;51027;42.162;24.754;2024-02-26T07:04:24;99427.00;;;10.49;100.00
64616;BME280;51027;42.162;24.754;2024-02-26T07:06:49;99424.97;;;10.35;100.00
64616;BME280;51027;42.162;24.754;2024-02-26T07:09:15;99421.59;;;10.31;100.00
64616;BME280;51027;42.162;24.754;2024-02-26T07:11:41;99439.69;;;10.59;100.00
64616;BME280;51027;42.162;24.754;2024-02-26T07:14:10;99432.66;;;10.60;100.00
64616;BME280;51027;42.162;24.754;2024-02-26T07:16:36;99431.41;;;10.48;100.00
64616;BME280;51027;42.162;24.754;2024-02-26T07:19:01;99431.34;;;10.50;100.00
64616;BME280;51027;42.162;24.754;2024-02-26T07:21:27;99436.34;;;10.76;100.00
64616;BME280;51027;42.162;24.754;2024-02-26T07:23:53;99406.22;;;10.43;100.00
64616;BME280;51027;42.162;24.754;2024-02-26T07:26:18;99430.47;;;10.49;100.00
64616;BME280;51027;42.162;24.754;2024-02-26T07:28:44;99429.09;;;10.61;100.00
64616;BME280;51027;42.162;24.754;2024-02-26T07:31:10;99443.63;;;10.90;100.00
64616;BME280;51027;42.162;24.754;2024-02-26T07:33:35;99442.56;;;10.94;100.00
64616;BME280;51027;42.162;24.754;2024-02-26T07:36:00;99443.25;;;10.79;100.00
64616;BME280;51027;42.162;24.754;2024-02-26T07:38:26;99432.09;;;10.92;100.00
64616;BME280;51027;42.162;24.754;2024-02-26T07:40:51;99436.31;;;10.96;100.00
64616;BME280;51027;42.162;24.754;2024-02-26T07:43:17;99443.22;;;10.99;100.00
64616;BME280;51027;42.162;24.754;2024-02-26T07:45:42;99437.13;;;11.17;100.00
64616;BME280;51027;42.162;24.754;2024-02-26T07:48:07;99439.25;;;11.28;100.00
64616;BME280;51027;42.162;24.754;2024-02-26T07:50:33;99436.09;;;11.01;100.00
64616;BME280;51027;42.162;24.754;2024-02-26T07:52:58;99436.41;;;11.33;100.00
64616;BME280;51027;42.162;24.754;2024-02-26T07:55:24;99428.28;;;11.18;100.00
64616;BME280;51027;42.162;24.754;2024-02-26T07:57:49;99440.25;;;11.25;100.00
64616;BME280;51027;42.162;24.754;2024-02-26T08:00:15;99425.53;;;11.01;100.00
64616;BME280;51027;42.162;24.754;2024-02-26T08:02:42;99435.00;;;11.25;100.00
64616;BME280;51027;42.162;24.754;2024-02-26T08:05:08;99422.22;;;10.98;100.00
64616;BME280;51027;42.162;24.754;2024-02-26T08:07:34;99430.78;;;11.40;100.00
64616;BME280;51027;42.162;24.754;2024-02-26T08:09:59;99418.88;;;11.50;100.00
64616;BME280;51027;42.162;24.754;2024-02-26T08:12:24;99437.16;;;11.72;100.00
64616;BME280;51027;42.162;24.754;2024-02-26T08:14:50;99431.38;;;11.64;100.00
64616;BME280;51027;42.162;24.754;2024-02-26T08:17:16;99430.25;;;11.70;100.00
64616;BME280;51027;42.162;24.754;2024-02-26T08:19:42;99438.34;;;11.86;100.00
64616;BME280;51027;42.162;24.754;2024-02-26T08:22:07;99429.94;;;11.95;100.00
64616;BME280;51027;42.162;24.754;2024-02-26T08:24:33;99436.38;;;11.70;100.00
64616;BME280;51027;42.162;24.754;2024-02-26T08:26:58;99431.69;;;11.77;100.00
64616;BME280;51027;42.162;24.754;2024-02-26T08:29:24;99431.34;;;12.02;100.00
64616;BME280;51027;42.162;24.754;2024-02-26T08:31:49;99445.19;;;12.07;100.00
64616;BME280;51027;42.162;24.754;2024-02-26T08:34:15;99448.56;;;12.28;100.00
64616;BME280;51027;42.162;24.754;2024-02-26T08:36:41;99440.31;;;12.34;100.00
64616;BME280;51027;42.162;24.754;2024-02-26T08:39:08;99419.72;;;12.23;100.00
64616;BME280;51027;42.162;24.754;2024-02-26T08:41:34;99427.81;;;12.37;100.00
64616;BME280;51027;42.162;24.754;2024-02-26T08:43:59;99422.13;;;12.62;100.00
64616;BME280;51027;42.162;24.754;2024-02-26T08:46:25;99426.56;;;12.62;100.00
64616;BME280;51027;42.162;24.754;2024-02-26T08:48:50;99426.38;;;12.65;100.00
64616;BME280;51027;42.162;24.754;2024-02-26T08:51:16;99431.47;;;12.85;100.00
64616;BME280;51027;42.162;24.754;2024-02-26T08:53:42;99430.91;;;12.96;100.00
64616;BME280;51027;42.162;24.754;2024-02-26T08:56:07;99404.28;;;12.83;100.00
64616;BME280;51027;42.162;24.754;2024-02-26T08:58:33;99405.19;;;13.15;100.00
64616;BME280;51027;42.162;24.754;2024-02-26T09:00:59;99428.50;;;13.09;100.00
64616;BME280;51027;42.162;24.754;2024-02-26T09:03:24;99424.91;;;13.10;100.00
64616;BME280;51027;42.162;24.754;2024-02-26T09:05:51;99396.97;;;13.21;100.00
64616;BME280;51027;42.162;24.754;2024-02-26T09:08:17;99415.84;;;13.47;100.00
64616;BME280;51027;42.162;24.754;2024-02-26T09:10:43;99415.84;;;13.63;100.00
64616;BME280;51027;42.162;24.754;2024-02-26T09:13:08;99421.81;;;13.19;100.00
64616;BME280;51027;42.162;24.754;2024-02-26T09:15:34;99419.19;;;13.50;100.00
64616;BME280;51027;42.162;24.754;2024-02-26T09:18:00;99417.38;;;13.82;100.00
64616;BME280;51027;42.162;24.754;2024-02-26T09:20:25;99418.75;;;13.90;100.00
64616;BME280;51027;42.162;24.754;2024-02-26T09:22:51;99413.16;;;13.78;100.00
64616;BME280;51027;42.162;24.754;2024-02-26T09:25:17;99415.81;;;13.94;100.00
64616;BME280;51027;42.162;24.754;2024-02-26T09:27:43;99404.13;;;13.82;100.00
64616;BME280;51027;42.162;24.754;2024-02-26T09:30:13;99420.78;;;14.00;100.00
64616;BME280;51027;42.162;24.754;2024-02-26T09:32:39;99410.22;;;13.53;100.00
64616;BME280;51027;42.162;24.754;2024-02-26T09:35:08;99409.38;;;13.98;100.00
64616;BME280;51027;42.162;24.754;2024-02-26T09:37:34;99408.34;;;13.71;100.00
64616;BME280;51027;42.162;24.754;2024-02-26T09:40:02;99422.94;;;14.38;100.00
64616;BME280;51027;42.162;24.754;2024-02-26T09:42:31;99412.28;;;14.84;100.00
64616;BME280;51027;42.162;24.754;2024-02-26T09:45:00;99413.78;;;15.16;100.00
64616;BME280;51027;42.162;24.754;2024-02-26T09:47:28;99412.13;;;15.42;100.00
64616;BME280;51027;42.162;24.754;2024-02-26T09:49:56;99424.94;;;15.64;100.00
64616;BME280;51027;42.162;24.754;2024-02-26T09:52:23;99407.22;;;16.44;100.00
64616;BME280;51027;42.162;24.754;2024-02-26T09:54:49;99403.22;;;16.51;100.00
64616;BME280;51027;42.162;24.754;2024-02-26T09:57:16;99369.78;;;15.41;100.00
64616;BME280;51027;42.162;24.754;2024-02-26T09:59:43;99405.72;;;15.88;100.00
64616;BME280;51027;42.162;24.754;2024-02-26T10:02:14;99405.97;;;15.42;100.00
64616;BME280;51027;42.162;24.754;2024-02-26T10:04:41;99399.56;;;15.87;83.45
64616;BME280;51027;42.162;24.754;2024-02-26T10:07:12;99393.66;;;16.09;80.16
64616;BME280;51027;42.162;24.754;2024-02-26T10:09:37;99373.28;;;17.24;75.20
64616;BME280;51027;42.162;24.754;2024-02-26T10:12:04;99375.38;;;16.82;76.76
64616;BME280;51027;42.162;24.754;2024-02-26T10:14:30;99365.88;;;16.53;77.38
64616;BME280;51027;42.162;24.754;2024-02-26T10:16:56;99367.34;;;17.20;75.84
64616;BME280;51027;42.162;24.754;2024-02-26T10:19:29;99372.31;;;17.38;74.45
64616;BME280;51027;42.162;24.754;2024-02-26T10:21:59;99361.28;;;17.55;73.19
64616;BME280;51027;42.162;24.754;2024-02-26T10:24:26;99360.88;;;16.61;75.64
64616;BME280;51027;42.162;24.754;2024-02-26T10:26:52;99347.78;;;17.09;74.14
64616;BME280;51027;42.162;24.754;2024-02-26T10:29:19;99346.34;;;16.79;74.45
64616;BME280;51027;42.162;24.754;2024-02-26T10:31:45;99361.22;;;16.94;74.46
64616;BME280;51027;42.162;24.754;2024-02-26T10:34:10;99349.75;;;16.81;74.63
64616;BME280;51027;42.162;24.754;2024-02-26T10:36:36;99341.53;;;16.97;74.74
64616;BME280;51027;42.162;24.754;2024-02-26T10:39:04;99336.09;;;16.22;75.98
64616;BME280;51027;42.162;24.754;2024-02-26T10:41:30;99333.28;;;16.76;75.04
64616;BME280;51027;42.162;24.754;2024-02-26T10:43:56;99327.63;;;16.81;74.02
64616;BME280;51027;42.162;24.754;2024-02-26T10:46:22;99333.28;;;15.98;77.32
64616;BME280;51027;42.162;24.754;2024-02-26T10:48:51;99327.28;;;16.60;75.40
64616;BME280;51027;42.162;24.754;2024-02-26T10:51:21;99322.06;;;16.96;73.98
64616;BME280;51027;42.162;24.754;2024-02-26T10:53:49;99305.78;;;17.25;72.25
64616;BME280;51027;42.162;24.754;2024-02-26T10:56:19;99328.00;;;17.73;71.64
64616;BME280;51027;42.162;24.754;2024-02-26T10:58:45;99296.34;;;17.21;72.25
64616;BME280;51027;42.162;24.754;2024-02-26T11:01:12;99313.06;;;17.95;70.66
64616;BME280;51027;42.162;24.754;2024-02-26T11:03:38;99294.75;;;18.36;68.60
64616;BME280;51027;42.162;24.754;2024-02-26T11:06:05;99314.97;;;18.39;68.31
64616;BME280;51027;42.162;24.754;2024-02-26T11:08:32;99311.91;;;18.10;68.16
64616;BME280;51027;42.162;24.754;2024-02-26T11:10:57;99308.78;;;17.81;68.59
64616;BME280;51027;42.162;24.754;2024-02-26T11:13:27;99291.09;;;17.32;70.12
64616;BME280;51027;42.162;24.754;2024-02-26T11:15:56;99296.75;;;17.51;69.32
64616;BME280;51027;42.162;24.754;2024-02-26T11:18:23;99300.50;;;17.49;69.72
64616;BME280;51027;42.162;24.754;2024-02-26T11:20:49;99281.66;;;16.53;72.04
64616;BME280;51027;42.162;24.754;2024-02-26T11:23:15;99291.84;;;17.82;69.35
64616;BME280;51027;42.162;24.754;2024-02-26T11:25:41;99282.63;;;17.86;68.20
64616;BME280;51027;42.162;24.754;2024-02-26T11:28:13;99278.53;;;18.62;66.37
64616;BME280;51027;42.162;24.754;2024-02-26T11:30:45;99289.28;;;18.38;66.18
64616;BME280;51027;42.162;24.754;2024-02-26T11:33:12;99279.16;;;17.97;67.63
64616;BME280;51027;42.162;24.754;2024-02-26T11:35:38;99261.94;;;17.66;68.62
64616;BME280;51027;42.162;24.754;2024-02-26T11:38:04;99271.06;;;17.26;69.71
64616;BME280;51027;42.162;24.754;2024-02-26T11:40:32;99271.06;;;17.26;70.13
64616;BME280;51027;42.162;24.754;2024-02-26T11:42:57;99253.84;;;17.67;69.23
64616;BME280;51027;42.162;24.754;2024-02-26T11:48:11;99255.66;;;17.67;68.92
64616;BME280;51027;42.162;24.754;2024-02-26T11:50:42;99261.44;;;17.37;69.16
64616;BME280;51027;42.162;24.754;2024-02-26T11:53:38;99257.09;;;17.36;69.82
64616;BME280;51027;42.162;24.754;2024-02-26T11:58:42;99252.84;;;17.81;69.09
64616;BME280;51027;42.162;24.754;2024-02-26T12:04:05;99246.56;;;17.10;70.46
64616;BME280;51027;42.162;24.754;2024-02-26T12:06:31;99247.25;;;17.25;69.97
64616;BME280;51027;42.162;24.754;2024-02-26T12:08:57;99252.19;;;17.06;70.89
64616;BME280;51027;42.162;24.754;2024-02-26T12:11:22;99246.56;;;16.74;71.87
64616;BME280;51027;42.162;24.754;2024-02-26T12:13:47;99248.66;;;16.81;71.96
64616;BME280;51027;42.162;24.754;2024-02-26T12:16:39;99233.25;;;17.10;71.65
64616;BME280;51027;42.162;24.754;2024-02-26T12:19:06;99235.47;;;17.40;70.40
64616;BME280;51027;42.162;24.754;2024-02-26T12:21:38;99229.81;;;17.56;69.56
64616;BME280;51027;42.162;24.754;2024-02-26T12:24:09;99232.66;;;17.90;68.54
64616;BME280;51027;42.162;24.754;2024-02-26T12:26:35;99240.16;;;17.96;68.77
64616;BME280;51027;42.162;24.754;2024-02-26T12:29:00;99231.56;;;18.03;67.90
64616;BME280;51027;42.162;24.754;2024-02-26T12:31:26;99233.44;;;20.09;62.99
64616;BME280;51027;42.162;24.754;2024-02-26T12:33:54;99229.50;;;21.15;59.26
64616;BME280;51027;42.162;24.754;2024-02-26T12:36:21;99185.22;;;19.05;62.38
64616;BME280;51027;42.162;24.754;2024-02-26T12:38:48;99220.53;;;18.08;66.98
64616;BME280;51027;42.162;24.754;2024-02-26T12:41:16;99216.56;;;18.13;66.70
64616;BME280;51027;42.162;24.754;2024-02-26T12:43:41;99213.88;;;18.02;67.39
64616;BME280;51027;42.162;24.754;2024-02-26T12:46:06;99222.47;;;18.06;67.03
64616;BME280;51027;42.162;24.754;2024-02-26T12:48:32;99231.50;;;18.50;66.11
64616;BME280;51027;42.162;24.754;2024-02-26T12:50:57;99199.97;;;17.99;65.86
64616;BME280;51027;42.162;24.754;2024-02-26T12:53:23;99215.16;;;17.74;67.00
64616;BME280;51027;42.162;24.754;2024-02-26T12:55:48;99212.56;;;17.62;67.34
64616;BME280;51027;42.162;24.754;2024-02-26T12:58:14;99200.16;;;17.84;65.96
64616;BME280;51027;42.162;24.754;2024-02-26T13:00:40;99221.75;;;17.93;65.94
64616;BME280;51027;42.162;24.754;2024-02-26T13:03:06;99215.13;;;18.09;65.26
64616;BME280;51027;42.162;24.754;2024-02-26T13:05:32;99214.16;;;18.22;64.99
64616;BME280;51027;42.162;24.754;2024-02-26T13:07:58;99198.16;;;17.99;65.06
64616;BME280;51027;42.162;24.754;2024-02-26T13:10:23;99219.22;;;18.13;65.58
64616;BME280;51027;42.162;24.754;2024-02-26T13:12:50;99214.88;;;18.46;65.15
64616;BME280;51027;42.162;24.754;2024-02-26T13:15:18;99214.16;;;18.33;64.68
64616;BME280;51027;42.162;24.754;2024-02-26T13:17:44;99196.94;;;18.37;64.45
64616;BME280;51027;42.162;24.754;2024-02-26T13:20:10;99200.56;;;18.02;64.94
64616;BME280;51027;42.162;24.754;2024-02-26T13:22:36;99212.94;;;18.37;64.48
64616;BME280;51027;42.162;24.754;2024-02-26T13:25:02;99226.41;;;18.35;64.27
64616;BME280;51027;42.162;24.754;2024-02-26T13:27:32;99222.34;;;17.96;65.17
64616;BME280;51027;42.162;24.754;2024-02-26T13:30:04;99227.94;;;18.16;65.17
64616;BME280;51027;42.162;24.754;2024-02-26T13:32:35;99218.50;;;18.00;65.73
64616;BME280;51027;42.162;24.754;2024-02-26T13:35:09;99219.53;;;17.87;66.07
64616;BME280;51027;42.162;24.754;2024-02-26T13:37:35;99227.75;;;17.48;67.46
64616;BME280;51027;42.162;24.754;2024-02-26T13:40:08;99224.34;;;17.46;67.54
64616;BME280;51027;42.162;24.754;2024-02-26T13:42:34;99220.22;;;17.42;67.99
64616;BME280;51027;42.162;24.754;2024-02-26T13:45:00;99236.91;;;17.68;67.29
64616;BME280;51027;42.162;24.754;2024-02-26T13:47:26;99239.50;;;17.70;66.72
64616;BME280;51027;42.162;24.754;2024-02-26T13:49:51;99224.97;;;17.50;67.05
64616;BME280;51027;42.162;24.754;2024-02-26T13:52:17;99241.41;;;17.68;66.92
64616;BME280;51027;42.162;24.754;2024-02-26T13:54:42;99235.75;;;17.48;67.31
64616;BME280;51027;42.162;24.754;2024-02-26T13:57:08;99219.72;;;17.37;67.58
64616;BME280;51027;42.162;24.754;2024-02-26T13:59:34;99230.78;;;17.20;69.00
64616;BME280;51027;42.162;24.754;2024-02-26T14:02:00;99240.28;;;17.35;69.26
64616;BME280;51027;42.162;24.754;2024-02-26T14:04:25;99242.22;;;17.09;69.87
64616;BME280;51027;42.162;24.754;2024-02-26T14:06:51;99249.41;;;16.83;69.87
64616;BME280;51027;42.162;24.754;2024-02-26T14:09:16;99250.50;;;17.05;69.89
64616;BME280;51027;42.162;24.754;2024-02-26T14:11:46;99251.78;;;17.12;70.19
64616;BME280;51027;42.162;24.754;2024-02-26T14:14:12;99254.94;;;16.80;70.60
64616;BME280;51027;42.162;24.754;2024-02-26T14:16:37;99251.25;;;16.70;70.78
64616;BME280;51027;42.162;24.754;2024-02-26T14:19:03;99260.91;;;16.84;70.85
64616;BME280;51027;42.162;24.754;2024-02-26T14:21:29;99262.84;;;16.56;72.30
64616;BME280;51027;42.162;24.754;2024-02-26T14:23:57;99271.97;;;16.65;72.13
64616;BME280;51027;42.162;24.754;2024-02-26T14:26:23;99263.34;;;16.61;72.12
64616;BME280;51027;42.162;24.754;2024-02-26T14:28:48;99266.13;;;16.60;71.66
64616;BME280;51027;42.162;24.754;2024-02-26T14:31:17;99267.31;;;16.56;70.76
64616;BME280;51027;42.162;24.754;2024-02-26T14:33:43;99262.53;;;16.48;68.50
64616;BME280;51027;42.162;24.754;2024-02-26T14:36:08;99263.88;;;16.54;68.17
64616;BME280;51027;42.162;24.754;2024-02-26T14:38:34;99241.28;;;16.35;68.13
64616;BME280;51027;42.162;24.754;2024-02-26T14:41:00;99265.50;;;16.69;68.18
64616;BME280;51027;42.162;24.754;2024-02-26T14:43:25;99257.06;;;16.62;67.53
64616;BME280;51027;42.162;24.754;2024-02-26T14:45:51;99258.28;;;16.71;67.73
64616;BME280;51027;42.162;24.754;2024-02-26T14:48:16;99241.88;;;16.52;67.35
64616;BME280;51027;42.162;24.754;2024-02-26T14:50:41;99251.91;;;16.35;67.95
64616;BME280;51027;42.162;24.754;2024-02-26T14:53:07;99248.09;;;16.27;68.46
64616;BME280;51027;42.162;24.754;2024-02-26T14:55:32;99241.38;;;16.21;69.00
64616;BME280;51027;42.162;24.754;2024-02-26T14:57:57;99251.28;;;16.19;69.58
64616;BME280;51027;42.162;24.754;2024-02-26T15:00:23;99258.84;;;16.25;69.40
64616;BME280;51027;42.162;24.754;2024-02-26T15:02:48;99260.75;;;16.36;69.49
64616;BME280;51027;42.162;24.754;2024-02-26T15:05:14;99246.50;;;16.37;69.19
64616;BME280;51027;42.162;24.754;2024-02-26T15:07:41;99261.38;;;16.39;69.57
64616;BME280;51027;42.162;24.754;2024-02-26T15:10:07;99253.06;;;16.31;69.53
64616;BME280;51027;42.162;24.754;2024-02-26T15:12:33;99251.03;;;16.22;69.81
64616;BME280;51027;42.162;24.754;2024-02-26T15:14:58;99260.81;;;16.22;69.89
64616;BME280;51027;42.162;24.754;2024-02-26T15:17:26;99244.03;;;16.08;69.82
64616;BME280;51027;42.162;24.754;2024-02-26T15:19:53;99266.66;;;16.14;70.39
64616;BME280;51027;42.162;24.754;2024-02-26T15:22:18;99257.22;;;16.10;69.75
64616;BME280;51027;42.162;24.754;2024-02-26T15:24:44;99254.63;;;15.83;69.94
64616;BME280;51027;42.162;24.754;2024-02-26T15:27:09;99266.53;;;15.90;70.29
64616;BME280;51027;42.162;24.754;2024-02-26T15:29:36;99276.53;;;15.87;71.13
64616;BME280;51027;42.162;24.754;2024-02-26T15:32:02;99278.13;;;15.76;71.33
64616;BME280;51027;42.162;24.754;2024-02-26T15:34:27;99273.63;;;15.64;72.10
64616;BME280;51027;42.162;24.754;2024-02-26T15:36:53;99280.22;;;15.71;71.92
64616;BME280;51027;42.162;24.754;2024-02-26T15:39:18;99281.91;;;15.72;71.62
64616;BME280;51027;42.162;24.754;2024-02-26T15:41:45;99294.38;;;15.57;72.19
64616;BME280;51027;42.162;24.754;2024-02-26T15:44:11;99285.72;;;15.68;71.82
64616;BME280;51027;42.162;24.754;2024-02-26T15:46:42;99292.94;;;15.66;71.74
64616;BME280;51027;42.162;24.754;2024-02-26T15:49:08;99292.84;;;15.68;72.20
64616;BME280;51027;42.162;24.754;2024-02-26T15:51:35;99294.97;;;15.48;72.15
64616;BME280;51027;42.162;24.754;2024-02-26T15:54:01;99295.19;;;15.45;72.61
64616;BME280;51027;42.162;24.754;2024-02-26T15:56:27;99304.84;;;15.46;72.37
64616;BME280;51027;42.162;24.754;2024-02-26T15:58:53;99304.22;;;15.43;72.88
64616;BME280;51027;42.162;24.754;2024-02-26T16:01:19;99302.91;;;15.36;73.21
64616;BME280;51027;42.162;24.754;2024-02-26T16:03:45;99305.19;;;15.27;73.58
64616;BME280;51027;42.162;24.754;2024-02-26T16:06:19;99284.97;;;15.12;73.59
64616;BME280;51027;42.162;24.754;2024-02-26T16:08:47;99311.66;;;15.23;74.18
64616;BME280;51027;42.162;24.754;2024-02-26T16:11:12;99306.78;;;15.30;73.67
64616;BME280;51027;42.162;24.754;2024-02-26T16:13:38;99310.28;;;15.31;74.14
64616;BME280;51027;42.162;24.754;2024-02-26T16:16:13;99318.47;;;15.27;74.34
64616;BME280;51027;42.162;24.754;2024-02-26T16:18:42;99307.94;;;15.26;74.57
64616;BME280;51027;42.162;24.754;2024-02-26T16:21:08;99304.56;;;15.10;74.77
64616;BME280;51027;42.162;24.754;2024-02-26T16:23:33;99314.25;;;14.96;75.82
64616;BME280;51027;42.162;24.754;2024-02-26T16:25:59;99319.09;;;15.04;76.00
64616;BME280;51027;42.162;24.754;2024-02-26T16:28:25;99321.84;;;15.03;76.61
64616;BME280;51027;42.162;24.754;2024-02-26T16:30:52;99322.59;;;15.05;76.61
64616;BME280;51027;42.162;24.754;2024-02-26T16:33:18;99322.69;;;14.89;77.58
64616;BME280;51027;42.162;24.754;2024-02-26T16:35:44;99328.44;;;15.10;77.12
64616;BME280;51027;42.162;24.754;2024-02-26T16:38:09;99333.56;;;15.13;77.16
64616;BME280;51027;42.162;24.754;2024-02-26T16:40:36;99331.94;;;15.10;77.27
64616;BME280;51027;42.162;24.754;2024-02-26T16:43:03;99331.19;;;15.08;78.31
64616;BME280;51027;42.162;24.754;2024-02-26T16:45:31;99331.22;;;14.80;79.37
64616;BME280;51027;42.162;24.754;2024-02-26T16:47:57;99344.19;;;14.84;80.21
64616;BME280;51027;42.162;24.754;2024-02-26T16:50:22;99343.34;;;14.84;80.44
64616;BME280;51027;42.162;24.754;2024-02-26T16:52:48;99340.97;;;14.79;81.17
64616;BME280;51027;42.162;24.754;2024-02-26T16:55:14;99342.41;;;14.85;80.93
64616;BME280;51027;42.162;24.754;2024-02-26T16:57:40;99353.84;;;14.71;82.35
64616;BME280;51027;42.162;24.754;2024-02-26T17:00:06;99344.88;;;14.74;83.01
64616;BME280;51027;42.162;24.754;2024-02-26T17:02:38;99353.97;;;14.84;82.81
64616;BME280;51027;42.162;24.754;2024-02-26T17:05:03;99361.78;;;14.71;83.37
64616;BME280;51027;42.162;24.754;2024-02-26T17:07:29;99358.56;;;14.80;83.12
64616;BME280;51027;42.162;24.754;2024-02-26T17:09:54;99369.09;;;14.67;83.72
64616;BME280;51027;42.162;24.754;2024-02-26T17:12:20;99367.03;;;14.73;83.47
64616;BME280;51027;42.162;24.754;2024-02-26T17:14:47;99376.47;;;14.77;83.60
64616;BME280;51027;42.162;24.754;2024-02-26T17:17:15;99372.41;;;14.71;84.17
64616;BME280;51027;42.162;24.754;2024-02-26T17:19:41;99379.97;;;14.77;83.88
64616;BME280;51027;42.162;24.754;2024-02-26T17:22:06;99372.03;;;14.63;83.74